Home   Weather   Germany   Zwickau   Past weeks
Flag for Germany

Past Weather in Zwickau, Saxony, Germany — Yesterday and Last 2 Weeks

Currently: 37 °F. Passing clouds. (Weather station: Altenburg Nobitz, Germany). See more current weather

Past Weather in Zwickau — Graph

°F

Zwickau Temperature Yesterday

Maximum temperature yesterday: 54 °F (at 12:20 am)
Minimum temperature yesterday: 37 °F (at 11:20 pm)
Average temperature yesterday: 45 °F

High & Low Weather Summary for the Past Weeks

 TemperatureHumidityPressure
High61 °F (Feb 16, 12:50 pm)100% (Feb 10, 3:50 am)30.54 "Hg (Feb 10, 3:50 am)
Low32 °F (Feb 18, 5:50 am)47% (Feb 21, 11:20 pm)29.12 "Hg (Feb 22, 10:50 pm)
Average47 °F80%29.81 "Hg
* Reported Feb 9 3:20 am — Feb 24 3:50 am, Zwickau. Weather by CustomWeather, © 2024

Note: Actual official high and low records may vary slightly from our data, if they occured in-between our weather recording intervals... More about our weather records

Zwickau Weather History for the Previous 24 Hours

Scroll right to see more
 ConditionsComfort  
Time TempWeatherWind HumidityBarometerVisibility
3:50 am
Sat, Feb 24
37 °FPassing clouds.7 mph81%29.50 "HgN/A
3:20 am36 °FPassing clouds.5 mph87%29.50 "HgN/A
2:50 am34 °FClear.6 mph93%29.50 "HgN/A
2:20 am34 °FPassing clouds.2 mph93%29.50 "HgN/A
1:50 am34 °FPassing clouds.3 mph93%29.50 "HgN/A
12:20 am36 °FPassing clouds.5 mph87%29.50 "HgN/A
11:50 pm
Fri, Feb 23
37 °FOvercast.3 mph81%29.50 "HgN/A
11:20 pm37 °FOvercast.2 mph81%29.50 "HgN/A
10:50 pm39 °FOvercast.3 mph75%29.50 "HgN/A
10:20 pm39 °FOvercast.3 mph75%29.50 "HgN/A
9:50 pm39 °FOvercast.3 mph75%29.50 "HgN/A
9:20 pm43 °FPassing clouds.6 mph66%29.50 "HgN/A
8:50 pm43 °FPassing clouds.7 mph66%29.50 "HgN/A
8:20 pm43 °FOvercast.5 mph66%29.50 "HgN/A
7:50 pm41 °FOvercast.2 mph66%29.50 "HgN/A
7:20 pm43 °FPassing clouds.5 mph61%29.50 "HgN/A
6:50 pm43 °FOvercast.7 mph61%29.50 "HgN/A
6:20 pm43 °FOvercast.6 mph61%29.50 "HgN/A
5:50 pm43 °FClear.5 mph66%29.50 "Hg10 mi
5:20 pm43 °FPassing clouds.6 mph66%29.50 "HgN/A
4:50 pm45 °FSunny.9 mph61%29.47 "Hg10 mi
4:20 pm45 °FSunny.9 mph57%29.50 "Hg10 mi
3:50 pm45 °FSunny.16 mph57%29.50 "Hg10 mi
3:20 pm45 °FPassing clouds.15 mph57%29.47 "HgN/A
2:50 pm46 °FPassing clouds.14 mph57%29.47 "HgN/A
2:20 pm46 °FSunny.16 mph57%29.47 "Hg10 mi
1:50 pm46 °FScattered clouds.13 mph57%29.47 "HgN/A
1:20 pm46 °FSunny.14 mph53%29.47 "Hg10 mi
12:50 pm46 °FSunny.16 mph53%29.47 "Hg10 mi
12:20 pm46 °FPassing clouds.14 mph53%29.47 "HgN/A
11:50 am46 °FPassing clouds.15 mph53%29.47 "HgN/A
11:20 am45 °FPassing clouds.16 mph57%29.47 "HgN/A
10:50 am46 °FPassing clouds.12 mph57%29.45 "HgN/A
10:20 am45 °FSunny.16 mph61%29.47 "Hg10 mi
9:50 am45 °FSunny.13 mph61%29.45 "Hg10 mi
9:20 am45 °FPassing clouds.7 mph66%29.45 "HgN/A
8:50 am43 °FSunny.10 mph71%29.45 "Hg10 mi
8:20 am43 °FBroken clouds.9 mph66%29.42 "HgN/A
7:50 am43 °FPartly sunny.8 mph71%29.42 "HgN/A
7:20 am43 °FPartly sunny.10 mph66%29.39 "HgN/A
6:50 am43 °FPassing clouds.12 mph66%29.39 "HgN/A
6:20 am43 °FPassing clouds.13 mph71%29.36 "HgN/A
5:50 am45 °FPassing clouds.14 mph66%29.36 "HgN/A
5:20 am45 °FPassing clouds.17 mph66%29.33 "HgN/A
Weather by CustomWeather, © 2024

See weather overview